Time;durP1;ratioP1;P1;durP2;ratioP2;P2;SDS_P1;SDS_P2;PMS_P1;PMS_P2;Temp;Humidity;BMP_temperature;BMP_pressure;BME280_temperature;BME280_humidity;BME280_pressure;Samples;Min_cycle;Max_cycle;Signal;HPM_P1;HPM_P2
2022/11/04 00:01:17;;;;;;;3.87;1.00;;;;;;;19.89;50.91;100111.59;5049713;28;20040;-67
2022/11/04 00:03:42;;;;;;;3.63;0.80;;;;;;;20.16;51.06;100125.81;5049694;28;20029;-67
2022/11/04 00:06:08;;;;;;;8.53;1.10;;;;;;;19.10;54.47;100121.47;5050158;28;20362;-67
2022/11/04 00:08:33;;;;;;;6.40;1.20;;;;;;;19.03;55.78;100122.72;5050488;28;20104;-67
2022/11/04 00:13:44;;;;;;;5.03;1.50;;;;;;;19.70;52.73;100125.94;5051013;28;20047;-67
2022/11/04 00:18:54;;;;;;;7.87;1.20;;;;;;;19.32;53.27;100144.91;5049174;28;20032;-67
2022/11/04 00:29:32;;;;;;;7.43;1.13;;;;;;;19.17;54.27;100145.81;5050424;28;20075;-67
2022/11/04 00:34:41;;;;;;;7.50;1.17;;;;;;;18.57;55.71;100166.66;5051368;28;20044;-67
2022/11/04 00:37:06;;;;;;;5.37;1.07;;;;;;;18.66;54.84;100167.97;5048092;28;20032;-66
2022/11/04 00:39:32;;;;;;;5.60;1.17;;;;;;;18.85;54.51;100172.25;5049048;28;20053;-67
2022/11/04 00:41:57;;;;;;;5.27;1.17;;;;;;;18.13;56.96;100186.63;5049866;28;20055;-67
2022/11/04 00:44:22;;;;;;;4.23;1.30;;;;;;;17.32;62.04;100183.56;5049580;28;20119;-67
2022/11/04 00:46:48;;;;;;;6.43;1.00;;;;;;;18.35;57.29;100180.19;5079265;28;20083;-67
2022/11/04 00:49:13;;;;;;;5.10;0.93;;;;;;;18.18;55.50;100188.16;5048938;28;20067;-67
2022/11/04 00:51:39;;;;;;;3.17;0.80;;;;;;;18.71;52.67;100187.09;5049704;28;20082;-67
2022/11/04 00:54:04;;;;;;;2.70;0.60;;;;;;;18.00;53.41;100196.09;5051287;28;20035;-67
2022/11/04 00:56:30;;;;;;;0.47;0.47;;;;;;;19.17;51.31;100204.09;5048540;28;20512;-66
2022/11/04 00:58:58;;;;;;;5.67;1.10;;;;;;;17.84;54.44;100211.00;5049205;28;20043;-66
2022/11/04 01:01:24;;;;;;;4.33;0.90;;;;;;;17.13;57.57;100216.16;5048558;28;20033;-66
2022/11/04 01:03:51;;;;;;;4.67;1.07;;;;;;;18.71;54.24;100203.00;5033947;28;20029;-66
2022/11/04 01:06:18;;;;;;;6.40;0.70;;;;;;;18.94;53.62;100208.84;5047634;28;20036;-66
2022/11/04 01:08:44;;;;;;;16.70;1.67;;;;;;;18.90;52.84;100204.66;5049807;28;20486;-66
2022/11/04 01:11:10;;;;;;;10.63;1.00;;;;;;;19.48;53.00;100209.34;5049440;28;20084;-67
2022/11/04 01:13:36;;;;;;;4.00;1.20;;;;;;;19.50;53.07;100207.44;5049591;28;20501;-67
2022/11/04 01:16:05;;;;;;;9.53;1.53;;;;;;;19.85;51.10;100221.44;5049468;28;21519;-67
2022/11/04 01:18:30;;;;;;;1.77;0.83;;;;;;;19.10;52.73;100220.31;5048693;28;20036;-67
2022/11/04 01:21:07;;;;;;;2.73;1.00;;;;;;;18.82;52.14;100223.56;5049912;28;20051;-67
2022/11/04 01:23:34;;;;;;;2.10;0.80;;;;;;;19.30;51.83;100232.44;5048302;28;20040;-66
2022/11/04 01:25:59;;;;;;;3.60;1.20;;;;;;;19.48;51.45;100230.53;5047963;28;20108;-67
2022/11/04 01:28:25;;;;;;;3.87;1.03;;;;;;;19.70;51.98;100224.03;5049664;28;20476;-66
2022/11/04 01:30:50;;;;;;;3.40;1.23;;;;;;;20.01;50.56;100230.19;5051288;28;20031;-67
2022/11/04 01:33:15;;;;;;;7.40;1.10;;;;;;;20.41;49.20;100237.56;5084843;28;20549;-67
2022/11/04 01:35:42;;;;;;;3.73;1.30;;;;;;;19.53;49.03;100242.69;5051517;28;20083;-67
2022/11/04 01:38:07;;;;;;;6.03;1.13;;;;;;;18.96;51.15;100252.84;5052683;28;20079;-67
2022/11/04 01:40:37;;;;;;;2.07;1.10;;;;;;;18.57;52.83;100258.44;5086783;28;20029;-66
2022/11/04 01:43:03;;;;;;;3.07;0.90;;;;;;;19.55;51.87;100257.56;5054846;28;20024;-67
2022/11/04 01:45:28;;;;;;;2.10;0.90;;;;;;;19.41;50.88;100254.81;5054174;28;20496;-67
2022/11/04 01:48:04;;;;;;;3.50;0.90;;;;;;;19.49;51.61;100266.72;5052102;28;20029;-67
2022/11/04 01:50:33;;;;;;;2.03;1.10;;;;;;;20.24;49.76;100263.34;5051425;28;20123;-68
2022/11/04 01:53:05;;;;;;;2.87;1.03;;;;;;;19.83;49.76;100256.00;5054446;28;20382;-67
2022/11/04 01:55:39;;;;;;;2.33;1.20;;;;;;;20.33;49.69;100259.25;5051437;28;20037;-67
2022/11/04 01:58:09;;;;;;;2.80;1.00;;;;;;;20.34;49.28;100266.28;5067740;28;20496;-67
2022/11/04 02:00:38;;;;;;;3.23;1.27;;;;;;;20.50;50.54;100271.53;5053765;28;20033;-68
2022/11/04 02:03:08;;;;;;;3.87;1.30;;;;;;;20.20;48.62;100274.22;5053694;28;20025;-67
2022/11/04 02:05:34;;;;;;;1.70;0.97;;;;;;;19.75;50.75;100277.63;5052012;28;20028;-67
2022/11/04 02:08:03;;;;;;;2.97;1.63;;;;;;;19.75;50.03;100276.78;5050573;28;20044;-68
2022/11/04 02:10:30;;;;;;;5.53;1.30;;;;;;;19.54;50.61;100281.50;5050979;28;20059;-68
2022/11/04 02:12:58;;;;;;;2.30;1.00;;;;;;;19.75;49.73;100285.56;5053093;28;20113;-68
2022/11/04 02:15:36;;;;;;;4.13;1.30;;;;;;;19.25;50.34;100281.34;5052290;28;20504;-68
2022/11/04 02:18:21;;;;;;;3.30;1.23;;;;;;;19.04;51.31;100281.56;5051233;28;20083;-68
2022/11/04 02:21:09;;;;;;;3.33;1.40;;;;;;;19.19;50.38;100289.59;5052313;28;20461;-67
2022/11/04 02:23:52;;;;;;;5.80;1.40;;;;;;;18.66;51.00;100287.06;5051487;28;20538;-68
2022/11/04 02:26:20;;;;;;;4.90;1.83;;;;;;;18.68;50.82;100282.53;5051859;28;20116;-68
2022/11/04 02:29:12;;;;;;;3.67;2.60;;;;;;;18.99;50.56;100287.09;5067545;28;20041;-68
2022/11/04 02:31:40;;;;;;;4.43;2.03;;;;;;;18.94;51.22;100293.56;5057023;28;20494;-68
2022/11/04 02:34:31;;;;;;;9.27;3.20;;;;;;;19.47;49.96;100287.13;5046329;28;20139;-68
2022/11/04 02:37:08;;;;;;;6.17;3.23;;;;;;;18.62;50.50;100283.72;5050087;28;20075;-67
2022/11/04 02:39:47;;;;;;;4.83;3.30;;;;;;;19.60;48.69;100283.78;5052467;28;20498;-68
2022/11/04 02:42:27;;;;;;;5.17;3.63;;;;;;;19.58;49.40;100288.34;5049855;28;20039;-68
2022/11/04 02:45:13;;;;;;;7.90;4.40;;;;;;;19.25;50.14;100283.97;5052775;28;20033;-67
2022/11/04 02:47:48;;;;;;;8.90;4.33;;;;;;;18.99;49.06;100286.25;5049392;28;20120;-67
2022/11/04 02:50:31;;;;;;;9.37;5.33;;;;;;;18.27;52.40;100282.88;5051149;28;20033;-68
2022/11/04 02:53:03;;;;;;;;;;;;;;;18.57;50.47;100283.09;5045516;28;20270;-67
2022/11/04 02:55:38;;;;;;;12.77;6.70;;;;;;;18.98;50.73;100295.13;5051999;28;20007;-67
2022/11/04 02:58:11;;;;;;;17.10;8.03;;;;;;;18.75;50.00;100299.84;5050640;28;20045;-68
2022/11/04 03:00:38;;;;;;;;;;;;;;;19.35;49.96;100298.41;5051824;28;20406;-71
2022/11/04 03:03:09;;;;;;;14.33;7.77;;;;;;;19.23;49.80;100288.50;5050944;28;20007;-67
2022/11/04 03:05:38;;;;;;;19.47;8.53;;;;;;;19.31;49.60;100302.19;5051879;28;20033;-67
2022/11/04 03:08:13;;;;;;;12.20;7.83;;;;;;;19.38;48.92;100298.25;5051661;28;20037;-67
2022/11/04 03:10:46;;;;;;;16.83;9.10;;;;;;;19.43;48.86;100301.50;5051437;28;20036;-68
2022/11/04 03:13:18;;;;;;;21.50;9.00;;;;;;;19.01;49.57;100297.59;5050775;28;20134;-67
2022/11/04 03:15:53;;;;;;;17.87;8.97;;;;;;;19.34;48.85;100291.41;5050599;28;20033;-68
2022/11/04 03:18:32;;;;;;;15.67;9.33;;;;;;;19.22;49.68;100289.44;5072102;28;20090;-67
2022/11/04 03:21:04;;;;;;;15.57;9.27;;;;;;;19.41;48.12;100298.09;5050841;28;20595;-68
2022/11/04 03:23:30;;;;;;;21.67;9.10;;;;;;;18.96;49.39;100297.00;5052273;28;20033;-67
2022/11/04 03:26:03;;;;;;;16.50;8.67;;;;;;;18.99;49.14;100302.13;5050661;28;20120;-67
2022/11/04 03:28:49;;;;;;;18.07;9.93;;;;;;;18.95;49.28;100305.88;5052868;28;20059;-67
2022/11/04 03:31:24;;;;;;;20.57;9.13;;;;;;;18.59;50.79;100309.50;5049917;28;20039;-68
2022/11/04 03:33:52;;;;;;;18.00;9.83;;;;;;;19.08;49.88;100320.19;5042988;28;20528;-67
2022/11/04 03:36:20;;;;;;;17.57;9.70;;;;;;;18.80;50.13;100318.09;5050440;28;20126;-67
2022/11/04 03:38:46;;;;;;;18.47;10.47;;;;;;;18.79;50.12;100327.84;5052008;28;20029;-68
2022/11/04 03:41:17;;;;;;;20.20;10.57;;;;;;;19.12;48.95;100324.38;5051859;28;20119;-68
2022/11/04 03:43:42;;;;;;;18.63;9.60;;;;;;;18.87;49.91;100318.66;5047764;28;20041;-67
2022/11/04 03:46:08;;;;;;;24.00;9.47;;;;;;;18.90;48.84;100324.66;5052126;28;20036;-68
2022/11/04 03:48:34;;;;;;;18.77;9.80;;;;;;;18.95;48.64;100327.06;5051403;28;20032;-68
2022/11/04 03:51:00;;;;;;;20.43;10.23;;;;;;;18.86;49.21;100328.34;5048256;28;20115;-67
2022/11/04 03:53:27;;;;;;;23.57;10.53;;;;;;;18.76;48.27;100333.28;5049802;28;20037;-67
2022/11/04 03:56:13;;;;;;;20.97;9.70;;;;;;;19.15;47.70;100337.47;5052355;28;20071;-68
2022/11/04 03:58:58;;;;;;;17.43;9.43;;;;;;;19.10;48.14;100342.13;5051070;28;20079;-68
2022/11/04 04:01:49;;;;;;;24.10;10.93;;;;;;;18.39;49.05;100340.47;5049342;28;20124;-67
2022/11/04 04:04:19;;;;;;;20.30;10.00;;;;;;;18.86;48.54;100338.09;5049045;28;20492;-67
2022/11/04 04:06:45;;;;;;;25.77;10.43;;;;;;;18.68;49.46;100335.47;5050937;28;20120;-68
2022/11/04 04:09:20;;;;;;;21.07;10.07;;;;;;;18.80;49.29;100342.78;5051522;28;20033;-68
2022/11/04 04:12:01;;;;;;;21.97;10.73;;;;;;;18.73;49.45;100333.44;5049262;28;20033;-68
2022/11/04 04:14:38;;;;;;;28.20;11.10;;;;;;;18.89;48.33;100337.97;5046158;28;20033;-67
2022/11/04 04:17:13;;;;;;;21.33;11.63;;;;;;;18.68;49.00;100345.22;5051601;28;20079;-67
2022/11/04 04:19:41;;;;;;;25.10;11.87;;;;;;;18.89;47.98;100345.91;5052939;28;20441;-67
2022/11/04 04:22:16;;;;;;;25.77;11.37;;;;;;;18.65;48.76;100347.06;5048713;28;20032;-68
2022/11/04 04:27:32;;;;;;;23.77;10.40;;;;;;;19.11;46.70;100364.16;5051844;28;20550;-68
2022/11/04 04:30:16;;;;;;;16.77;9.70;;;;;;;18.46;48.62;100373.66;5049919;28;20183;-67
2022/11/04 04:32:54;;;;;;;18.57;10.13;;;;;;;18.38;49.45;100370.53;5047494;28;20028;-68
2022/11/04 04:35:41;;;;;;;20.10;10.27;;;;;;;18.28;48.95;100374.53;5049878;28;20147;-68
2022/11/04 04:46:38;;;;;;;18.80;9.70;;;;;;;18.30;48.42;100375.34;5050747;28;20120;-67
2022/11/04 04:49:07;;;;;;;24.10;10.47;;;;;;;18.37;48.43;100383.81;5064789;28;20032;-68
2022/11/04 04:51:35;;;;;;;17.17;9.53;;;;;;;18.14;48.82;100389.28;5066399;28;20428;-68
2022/11/04 04:54:00;;;;;;;19.00;9.67;;;;;;;18.00;49.59;100385.59;5049991;28;20028;-68
2022/11/04 04:56:25;;;;;;;21.13;10.03;;;;;;;17.96;49.71;100384.91;5082904;28;20090;-68
2022/11/04 04:58:51;;;;;;;20.20;10.10;;;;;;;18.03;49.42;100391.63;5049930;28;20048;-68
2022/11/04 05:01:16;;;;;;;17.43;10.30;;;;;;;17.92;49.80;100388.63;5048069;28;20036;-68
2022/11/04 05:03:41;;;;;;;22.97;10.20;;;;;;;18.02;48.99;100399.63;5048651;28;20108;-67
2022/11/04 05:06:07;;;;;;;18.20;10.20;;;;;;;17.80;49.24;100401.47;5053724;28;20029;-67
2022/11/04 05:08:34;;;;;;;18.97;9.43;;;;;;;17.93;49.21;100400.94;5054001;28;20032;-68
2022/11/04 05:10:59;;;;;;;17.67;9.57;;;;;;;18.13;48.48;100411.41;5087172;28;20116;-68
2022/11/04 05:13:25;;;;;;;19.10;9.23;;;;;;;18.00;48.71;100409.41;5052949;28;20478;-68
2022/11/04 05:15:51;;;;;;;17.67;9.00;;;;;;;18.18;48.18;100410.34;5051872;28;20029;-68
2022/11/04 05:18:16;;;;;;;16.43;8.67;;;;;;;17.90;49.07;100416.88;5055035;28;20390;-68
2022/11/04 05:20:42;;;;;;;15.33;8.63;;;;;;;17.83;49.01;100426.03;5055383;28;20029;-67
2022/11/04 05:23:10;;;;;;;20.90;8.90;;;;;;;17.62;48.91;100423.47;5052639;28;20039;-67
2022/11/04 05:25:36;;;;;;;16.13;7.90;;;;;;;17.96;48.20;100428.06;5051520;28;20103;-67
2022/11/04 05:28:01;;;;;;;14.00;7.57;;;;;;;18.19;48.73;100422.59;5054854;28;20044;-68
2022/11/04 05:30:27;;;;;;;16.63;8.23;;;;;;;18.37;48.50;100434.06;5052308;28;20044;-68
2022/11/04 05:32:53;;;;;;;13.30;7.53;;;;;;;18.57;48.26;100431.31;5052889;28;20029;-68
2022/11/04 05:35:18;;;;;;;13.83;7.73;;;;;;;18.54;48.69;100436.75;5052128;28;20060;-68
2022/11/04 05:37:43;;;;;;;13.77;7.87;;;;;;;18.37;48.90;100434.94;5054543;28;20037;-68
2022/11/04 05:40:09;;;;;;;14.33;7.93;;;;;;;18.24;48.96;100434.66;5052326;28;20041;-68
2022/11/04 05:42:35;;;;;;;15.60;7.80;;;;;;;18.59;48.92;100444.47;5052986;28;20036;-68
2022/11/04 05:45:01;;;;;;;15.00;7.50;;;;;;;18.31;49.66;100448.47;5052655;28;20033;-68
2022/11/04 05:47:27;;;;;;;15.27;7.53;;;;;;;18.67;48.86;100452.91;5054135;28;20029;-68
2022/11/04 05:49:52;;;;;;;13.23;7.20;;;;;;;18.73;49.04;100449.94;5051162;28;20473;-68
2022/11/04 05:52:17;;;;;;;13.83;7.33;;;;;;;18.72;49.00;100453.50;5082907;28;20025;-68
2022/11/04 05:54:43;;;;;;;12.23;6.87;;;;;;;18.78;48.77;100454.97;5052884;28;20067;-68
2022/11/04 05:57:09;;;;;;;10.67;6.50;;;;;;;18.97;47.77;100447.00;5053134;28;20079;-68
2022/11/04 05:59:34;;;;;;;10.57;6.20;;;;;;;19.30;47.71;100446.19;5052817;28;20057;-68
2022/11/04 06:02:01;;;;;;;12.20;6.20;;;;;;;19.14;46.73;100454.94;5051746;28;20040;-69
2022/11/04 06:04:26;;;;;;;13.00;6.87;;;;;;;19.53;46.98;100449.41;5049678;28;20535;-68
2022/11/04 06:06:51;;;;;;;9.97;6.43;;;;;;;19.69;46.38;100458.25;5054439;28;20029;-68
2022/11/04 06:09:17;;;;;;;13.83;5.83;;;;;;;19.72;46.24;100460.75;5058422;28;20496;-68
2022/11/04 06:11:42;;;;;;;13.10;6.37;;;;;;;19.47;46.63;100462.06;5060857;28;20020;-68
2022/11/04 06:14:08;;;;;;;12.40;5.90;;;;;;;19.58;46.59;100463.28;5051005;28;20052;-68
2022/11/04 06:16:33;;;;;;;14.33;6.43;;;;;;;19.32;47.52;100465.53;5053509;28;20079;-68
2022/11/04 06:18:58;;;;;;;13.13;6.67;;;;;;;19.29;47.67;100465.69;5056231;28;20028;-68
2022/11/04 06:21:29;;;;;;;12.57;6.40;;;;;;;19.51;48.09;100473.34;5048934;28;20033;-69
2022/11/04 06:23:56;;;;;;;13.57;6.37;;;;;;;18.69;48.91;100477.50;5084726;28;20036;-68
2022/11/04 06:26:23;;;;;;;9.90;5.87;;;;;;;19.09;48.13;100472.84;5051693;28;20041;-68
2022/11/04 06:28:48;;;;;;;15.53;6.10;;;;;;;18.53;49.09;100476.53;5053339;28;20028;-68
2022/11/04 06:31:15;;;;;;;12.30;5.03;;;;;;;18.56;48.77;100476.38;5053418;28;20033;-68
2022/11/04 06:33:41;;;;;;;9.87;5.80;;;;;;;17.96;50.44;100477.47;5050698;28;20607;-68
2022/11/04 06:36:09;;;;;;;12.97;5.27;;;;;;;18.58;48.87;100478.00;5053851;28;20033;-68
2022/11/04 06:38:36;;;;;;;14.73;5.30;;;;;;;17.77;50.58;100478.25;5055400;28;20542;-68
2022/11/04 06:41:03;;;;;;;10.37;5.63;;;;;;;17.48;51.73;100478.72;5051722;28;20162;-69
2022/11/04 06:43:28;;;;;;;14.90;5.83;;;;;;;17.31;51.89;100482.97;5051205;28;20045;-68
2022/11/04 06:45:58;;;;;;;10.30;5.73;;;;;;;16.83;53.76;100486.72;5051244;28;20025;-69
2022/11/04 06:48:24;;;;;;;13.50;5.77;;;;;;;17.34;51.91;100477.56;5053017;28;20033;-68
2022/11/04 06:50:49;;;;;;;10.77;5.30;;;;;;;17.53;52.04;100484.66;5051140;28;20652;-68
2022/11/04 06:53:15;;;;;;;14.10;5.20;;;;;;;17.44;52.39;100484.13;5049889;28;20410;-68
2022/11/04 06:55:40;;;;;;;17.53;5.90;;;;;;;17.69;51.53;100488.31;5049143;28;20110;-68
2022/11/04 06:58:06;;;;;;;11.50;6.07;;;;;;;17.90;50.11;100490.91;5045767;28;20037;-68
2022/11/04 07:00:31;;;;;;;13.80;5.67;;;;;;;17.96;50.61;100496.81;5053311;28;20082;-67
2022/11/04 07:02:57;;;;;;;15.07;5.73;;;;;;;18.10;50.16;100504.09;5050269;28;20025;-67
2022/11/04 07:05:22;;;;;;;11.90;5.50;;;;;;;17.98;50.17;100499.38;5051293;28;20033;-67
2022/11/04 07:07:48;;;;;;;13.63;5.17;;;;;;;16.50;53.25;100498.63;5050786;28;20394;-67
2022/11/04 07:10:13;;;;;;;18.57;5.27;;;;;;;17.48;51.55;100500.72;5051197;28;20025;-68
2022/11/04 07:12:38;;;;;;;19.93;5.00;;;;;;;17.18;52.34;100497.63;5049815;28;20021;-67
2022/11/04 07:15:04;;;;;;;12.73;5.30;;;;;;;17.43;51.37;100500.94;5052845;28;20037;-67
2022/11/04 07:17:30;;;;;;;12.03;4.80;;;;;;;17.56;51.41;100503.88;5051298;28;20032;-68
2022/11/04 07:19:55;;;;;;;11.30;4.43;;;;;;;17.39;51.53;100512.56;5046807;28;20088;-68
2022/11/04 07:22:20;;;;;;;14.90;4.83;;;;;;;17.69;51.12;100514.75;5081677;28;20033;-68
2022/11/04 07:24:46;;;;;;;11.83;5.00;;;;;;;17.85;50.93;100522.00;5049898;28;20033;-67
2022/11/04 07:27:11;;;;;;;14.43;4.90;;;;;;;17.92;49.85;100526.13;5049573;28;20029;-68
2022/11/04 07:29:36;;;;;;;12.87;4.40;;;;;;;18.17;49.80;100540.84;5047284;28;20035;-68
2022/11/04 07:32:02;;;;;;;18.60;5.63;;;;;;;18.23;49.85;100540.56;5048842;28;20111;-68
2022/11/04 07:34:27;;;;;;;15.87;5.13;;;;;;;18.27;49.57;100543.00;5081836;28;20065;-68
2022/11/04 07:36:53;;;;;;;15.53;5.93;;;;;;;18.46;49.05;100543.00;5050053;28;20040;-68
2022/11/04 07:39:18;;;;;;;17.93;6.67;;;;;;;18.63;48.99;100544.81;5052371;28;20017;-68
2022/11/04 07:41:43;;;;;;;14.57;5.90;;;;;;;18.24;49.69;100553.69;5058977;28;20029;-68
2022/11/04 07:44:12;;;;;;;14.23;5.63;;;;;;;18.54;48.80;100560.28;5031415;28;20549;-68
2022/11/04 07:46:38;;;;;;;12.47;5.30;;;;;;;18.82;48.74;100559.81;5043475;28;20054;-68
2022/11/04 07:49:03;;;;;;;13.37;5.23;;;;;;;18.76;48.62;100563.59;5051628;28;20474;-67
2022/11/04 07:51:31;;;;;;;13.00;5.40;;;;;;;18.52;49.47;100564.78;5050232;28;20122;-67
2022/11/04 07:53:57;;;;;;;13.63;5.50;;;;;;;18.86;48.40;100566.66;5050716;28;20115;-68
2022/11/04 07:56:23;;;;;;;14.33;5.60;;;;;;;18.84;49.79;100562.41;5046416;28;20136;-68
2022/11/04 07:58:49;;;;;;;15.03;5.20;;;;;;;19.34;48.67;100569.63;5050906;28;20033;-68
2022/11/04 08:01:17;;;;;;;14.23;5.17;;;;;;;19.37;48.38;100571.25;5052654;28;20544;-68
2022/11/04 08:03:42;;;;;;;16.63;5.87;;;;;;;19.26;48.29;100575.34;5050455;28;20419;-68
2022/11/04 08:06:10;;;;;;;15.27;5.93;;;;;;;19.34;47.83;100574.91;5049598;28;20098;-68
2022/11/04 08:08:36;;;;;;;14.67;6.30;;;;;;;19.26;48.00;100574.44;5054687;28;20103;-67
2022/11/04 08:11:27;;;;;;;18.67;6.33;;;;;;;19.35;48.07;100583.75;5050148;28;20573;-67
2022/11/04 08:13:53;;;;;;;16.80;5.00;;;;;;;18.90;48.86;100591.25;5052789;28;20036;-67
2022/11/04 08:16:22;;;;;;;19.47;5.00;;;;;;;18.66;50.22;100594.13;5049644;28;20029;-68
2022/11/04 08:18:50;;;;;;;19.37;5.73;;;;;;;18.62;51.07;100603.97;5049384;28;20230;-67
2022/11/04 08:21:16;;;;;;;23.37;6.10;;;;;;;18.46;51.27;100611.81;5050142;28;20143;-67
2022/11/04 08:23:41;;;;;;;19.23;6.40;;;;;;;18.98;50.41;100611.13;5056831;28;20452;-67
2022/11/04 08:26:11;;;;;;;16.37;6.07;;;;;;;19.63;49.00;100612.34;5050308;28;20473;-68
2022/11/04 08:28:37;;;;;;;17.93;6.10;;;;;;;19.61;49.24;100617.72;5048731;28;20029;-68
2022/11/04 08:31:04;;;;;;;24.37;6.57;;;;;;;19.17;49.56;100606.72;5050632;28;20474;-68
2022/11/04 08:33:32;;;;;;;15.43;6.23;;;;;;;19.67;48.02;100616.53;5048719;28;20024;-68
2022/11/04 08:36:01;;;;;;;15.50;6.23;;;;;;;19.53;48.42;100613.75;5049439;28;20025;-68
2022/11/04 08:38:27;;;;;;;19.27;6.67;;;;;;;19.48;49.25;100617.50;5049618;28;20083;-68
2022/11/04 08:40:57;;;;;;;15.20;6.37;;;;;;;18.91;50.97;100627.38;5048572;28;20036;-67
2022/11/04 08:43:22;;;;;;;10.90;6.20;;;;;;;17.96;54.14;100618.44;5048123;28;20458;-67
2022/11/04 08:45:48;;;;;;;17.77;8.93;;;;;;;19.13;50.78;100622.75;5048650;28;20060;-67
2022/11/04 08:48:15;;;;;;;20.00;9.10;;;;;;;20.00;47.85;100623.72;5048691;28;20119;-68
2022/11/04 08:50:41;;;;;;;18.83;7.77;;;;;;;19.87;48.40;100630.63;5081838;28;20036;-68
2022/11/04 08:53:07;;;;;;;14.17;7.80;;;;;;;19.77;48.54;100633.72;5048315;28;20114;-68
2022/11/04 08:55:33;;;;;;;19.87;7.50;;;;;;;19.94;48.16;100632.84;5048728;28;20031;-68
2022/11/04 08:58:00;;;;;;;20.13;7.97;;;;;;;19.82;48.43;100641.44;5048943;28;20063;-68
2022/11/04 09:00:27;;;;;;;23.10;7.67;;;;;;;19.96;47.81;100638.94;5051861;28;20118;-68
2022/11/04 09:02:54;;;;;;;18.87;7.70;;;;;;;19.85;48.44;100645.72;5044625;28;20028;-68
2022/11/04 09:05:20;;;;;;;17.87;7.60;;;;;;;20.31;47.48;100640.66;5050728;28;20032;-68
2022/11/04 09:07:45;;;;;;;21.73;7.97;;;;;;;19.91;48.52;100650.75;5042381;28;20384;-68
2022/11/04 09:10:10;;;;;;;19.13;8.20;;;;;;;20.25;47.63;100638.31;5049087;28;20036;-67
2022/11/04 09:12:36;;;;;;;19.83;9.03;;;;;;;20.00;48.02;100645.81;5047346;28;20107;-68
2022/11/04 09:15:04;;;;;;;18.40;8.60;;;;;;;20.17;47.68;100652.84;5048349;28;20056;-67
2022/11/04 09:17:30;;;;;;;19.93;8.93;;;;;;;19.88;48.12;100656.19;5050498;28;20066;-68
2022/11/04 09:19:56;;;;;;;15.07;8.97;;;;;;;19.40;50.03;100664.72;5046005;28;20025;-67
2022/11/04 09:22:21;;;;;;;23.37;10.20;;;;;;;20.13;48.65;100656.63;5052055;28;20021;-67
2022/11/04 09:24:47;;;;;;;15.37;7.63;;;;;;;19.93;48.26;100664.75;5047700;28;20112;-68
2022/11/04 09:27:13;;;;;;;13.87;7.60;;;;;;;20.33;48.59;100662.66;5048934;28;20025;-68
2022/11/04 09:29:39;;;;;;;23.33;9.40;;;;;;;20.31;47.39;100667.19;5047641;28;20067;-68
2022/11/04 09:32:06;;;;;;;19.93;9.10;;;;;;;20.24;48.72;100663.16;5047842;28;20060;-68
2022/11/04 09:34:31;;;;;;;22.23;11.47;;;;;;;20.01;48.90;100673.19;5049000;28;20060;-68
2022/11/04 09:36:57;;;;;;;23.13;11.73;;;;;;;20.66;47.84;100665.28;5049747;28;20063;-67
2022/11/04 09:39:23;;;;;;;19.43;9.20;;;;;;;20.78;47.48;100668.22;5049710;28;20043;-67
2022/11/04 09:42:01;;;;;;;24.90;8.60;;;;;;;20.76;47.46;100686.91;5048639;28;20392;-67
2022/11/04 09:44:49;;;;;;;18.83;8.33;;;;;;;20.48;48.77;100687.50;5052796;28;20069;-68
2022/11/04 09:47:16;;;;;;;15.23;8.50;;;;;;;21.06;48.04;100688.81;5048979;28;20029;-68
2022/11/04 09:49:45;;;;;;;20.38;9.68;;;;;;;21.08;46.83;100702.84;5047624;28;20405;-67
2022/11/04 09:52:18;;;;;;;18.67;8.98;;;;;;;21.90;46.47;100705.28;5045670;28;20028;-67
2022/11/04 09:54:49;;;;;;;;;;;;;;;22.42;45.87;100718.16;5053446;28;20105;-68
2022/11/04 09:57:17;;;;;;;16.38;9.25;;;;;;;21.08;46.90;100718.78;5053883;28;19966;-68
2022/11/04 09:59:43;;;;;;;14.80;8.02;;;;;;;21.24;47.77;100713.47;5051735;28;20041;-68
2022/11/04 10:02:21;;;;;;;20.80;8.55;;;;;;;21.30;46.20;100712.28;5028917;28;20992;-67
2022/11/04 10:05:02;;;;;;;19.30;8.00;;;;;;;21.69;45.79;100725.09;5048149;28;20036;-67
2022/11/04 10:08:19;;;;;;;14.98;8.30;;;;;;;21.91;46.46;100726.47;5051420;28;20044;-67
2022/11/04 10:10:53;;;;;;;19.23;9.57;;;;;;;22.55;45.46;100728.88;4991585;28;20189;-67
2022/11/04 10:13:39;;;;;;;16.48;7.82;;;;;;;22.10;45.86;100734.22;5032302;28;20496;-67
2022/11/04 10:16:07;;;;;;;20.65;7.97;;;;;;;22.06;46.27;100737.16;5073308;28;20040;-67
2022/11/04 10:18:50;;;;;;;16.92;8.60;;;;;;;21.90;45.27;100742.53;5053114;28;20028;-67
2022/11/04 10:21:40;;;;;;;17.33;8.45;;;;;;;21.62;46.31;100741.50;5046119;28;20048;-67
2022/11/04 10:24:14;;;;;;;15.27;7.85;;;;;;;22.03;46.17;100743.53;5049386;28;20041;-67
2022/11/04 10:26:45;;;;;;;20.05;9.18;;;;;;;21.61;45.84;100758.41;5052105;28;20423;-67
2022/11/04 10:29:34;;;;;;;17.00;9.25;;;;;;;21.55;46.51;100764.06;5043876;28;20040;-67
2022/11/04 10:32:05;;;;;;;14.52;9.02;;;;;;;21.38;46.45;100757.88;5050362;28;20068;-67
2022/11/04 10:34:38;;;;;;;18.85;8.30;;;;;;;21.93;46.09;100766.31;5051823;28;20031;-67
2022/11/04 10:37:08;;;;;;;;;;;;;;;21.14;45.99;100776.94;5040886;28;20033;-67
2022/11/04 10:39:38;;;;;;;13.00;8.52;;;;;;;21.95;46.11;100780.38;5050941;28;20388;-67
2022/11/04 10:42:04;;;;;;;14.88;8.05;;;;;;;20.76;47.38;100787.84;5048006;28;20386;-67
2022/11/04 10:44:35;;;;;;;14.43;8.23;;;;;;;21.15;47.38;100789.25;5051075;28;20032;-67
2022/11/04 10:47:39;;;;;;;12.07;7.88;;;;;;;21.52;46.56;100776.59;5055606;28;20120;-67
2022/11/04 10:50:10;;;;;;;13.27;8.05;;;;;;;22.36;45.98;100787.75;5019630;28;20118;-67
2022/11/04 10:52:36;;;;;;;16.90;8.45;;;;;;;21.31;45.57;100793.75;5053499;28;20394;-67
2022/11/04 10:55:09;;;;;;;12.88;7.88;;;;;;;21.19;46.11;100788.13;5050575;28;20485;-68
2022/11/04 10:57:35;;;;;;;14.93;9.50;;;;;;;22.07;45.93;100797.44;5049608;28;20043;-68
2022/11/04 11:00:04;;;;;;;16.52;8.23;;;;;;;21.79;45.86;100788.38;5051182;28;20025;-68
2022/11/04 11:02:35;;;;;;;17.63;7.82;;;;;;;22.83;44.06;100789.31;5048171;28;20044;-68
2022/11/04 11:05:17;;;;;;;15.07;8.32;;;;;;;23.10;43.96;100793.84;5048618;28;20043;-68
2022/11/04 11:07:44;;;;;;;18.42;7.28;;;;;;;22.03;44.70;100791.44;5045658;28;20108;-68
2022/11/04 11:10:22;;;;;;;12.15;6.60;;;;;;;22.40;44.17;100807.91;5047462;28;20444;-68
2022/11/04 11:13:03;;;;;;;13.38;6.93;;;;;;;22.78;43.76;100802.06;5045930;28;20041;-68
2022/11/04 11:15:34;;;;;;;15.38;6.35;;;;;;;22.84;43.67;100800.81;5051221;28;20029;-68
2022/11/04 11:18:22;;;;;;;11.90;6.15;;;;;;;21.62;44.72;100802.66;5046783;28;20713;-68
2022/11/04 11:20:50;;;;;;;9.60;5.97;;;;;;;22.81;43.06;100807.19;5039333;28;20060;-68
2022/11/04 11:23:50;;;;;;;11.25;6.47;;;;;;;21.59;45.06;100818.81;5045637;28;20512;-68
2022/11/04 11:26:18;;;;;;;12.07;6.28;;;;;;;22.46;44.09;100820.88;5047946;28;20425;-67
2022/11/04 11:28:50;;;;;;;10.80;7.43;;;;;;;22.69;43.66;100821.25;5048882;28;20060;-68
2022/11/04 11:31:22;;;;;;;8.93;5.40;;;;;;;21.19;44.73;100828.00;5046309;28;20044;-68
2022/11/04 11:34:00;;;;;;;12.13;5.37;;;;;;;22.20;42.73;100828.56;5049364;28;20257;-67
2022/11/04 11:36:35;;;;;;;19.83;5.90;;;;;;;23.15;42.58;100833.56;5049847;28;20326;-67
2022/11/04 11:39:04;;;;;;;6.18;4.88;;;;;;;21.65;44.42;100845.03;5051801;28;20030;-67
2022/11/04 11:41:32;;;;;;;10.75;5.00;;;;;;;21.95;43.50;100841.56;5051466;28;20056;-67
2022/11/04 11:44:06;;;;;;;10.55;5.30;;;;;;;21.47;45.47;100847.78;5049108;28;20047;-67
2022/11/04 11:46:34;;;;;;;8.77;4.82;;;;;;;21.43;45.16;100851.53;5050238;28;20401;-67
2022/11/04 11:49:02;;;;;;;9.57;5.43;;;;;;;21.58;46.27;100864.94;5049081;28;20143;-67
2022/11/04 11:51:33;;;;;;;8.95;5.47;;;;;;;22.47;43.52;100862.50;5050458;28;20056;-67
2022/11/04 11:54:11;;;;;;;10.13;5.35;;;;;;;22.86;42.89;100863.72;5051774;28;20032;-67
2022/11/04 11:56:42;;;;;;;9.23;4.90;;;;;;;22.65;42.89;100867.69;5049551;28;20086;-67
2022/11/04 11:59:19;;;;;;;13.70;5.72;;;;;;;23.57;42.58;100860.28;5044695;28;20132;-68